TVF206H LQSA-LFPO
Flight info
| Callsign | TVF206H |
|---|---|
| Flight time | 2h 12m |
| Altitude | 34000 |
| Route | BOSNA DCT MARIL DCT EVTON DCT MONID DCT RUGOG DCT RIFEN DCT SAFFA DCT ELMUR L613 HOC/N0447F350 DCT MOROK DCT PENDU DCT JAVVU DCT DJL |
| Aircraft | B738/M-SDFGHIJ1RWXY/LB1 |
Departure
| Time | 2026-04-21 11:42 |
|---|---|
| Airport | Sarajevo International Airport (LQSA) |
Arrival
| Time | 2026-04-21 13:54 |
|---|---|
| Airport | Paris-Orly Airport (LFPO) |
| Time | Latitude | Longitude | Altitude | Speed | Heading |
|---|---|---|---|---|---|
| 2026-04-21 11:29 | 43.82513 | 18.33688 | 1685 ft | 0 kts | 29° |
| 2026-04-21 11:35 | 43.82503 | 18.33680 | 1688 ft | 4 kts | 36° |
| 2026-04-21 11:35 | 43.82484 | 18.33655 | 1688 ft | 2 kts | 59° |
| 2026-04-21 11:35 | 43.82484 | 18.33654 | 1687 ft | 0 kts | 59° |
| 2026-04-21 11:38 | 43.82484 | 18.33655 | 1688 ft | 0 kts | 60° |
| 2026-04-21 11:38 | 43.82483 | 18.33669 | 1689 ft | 6 kts | 102° |
| 2026-04-21 11:38 | 43.82420 | 18.33760 | 1690 ft | 18 kts | 137° |
| 2026-04-21 11:38 | 43.82355 | 18.33901 | 1692 ft | 17 kts | 116° |
| 2026-04-21 11:39 | 43.82301 | 18.34044 | 1697 ft | 17 kts | 117° |
| 2026-04-21 11:39 | 43.82250 | 18.34183 | 1702 ft | 16 kts | 117° |
| 2026-04-21 11:39 | 43.82200 | 18.34316 | 1705 ft | 15 kts | 118° |
| 2026-04-21 11:39 | 43.82151 | 18.34444 | 1708 ft | 15 kts | 117° |
| 2026-04-21 11:40 | 43.82104 | 18.34566 | 1710 ft | 14 kts | 125° |
| 2026-04-21 11:40 | 43.82023 | 18.34624 | 1712 ft | 13 kts | 181° |
| 2026-04-21 11:40 | 43.81945 | 18.34566 | 1715 ft | 13 kts | 243° |
| 2026-04-21 11:40 | 43.81949 | 18.34508 | 1713 ft | 0 kts | 297° |
| 2026-04-21 11:41 | 43.81971 | 18.34449 | 1711 ft | 31 kts | 297° |
| 2026-04-21 11:41 | 43.82183 | 18.33886 | 1701 ft | 100 kts | 297° |
| 2026-04-21 11:41 | 43.82602 | 18.32777 | 1684 ft | 159 kts | 298° |
| 2026-04-21 11:41 | 43.83165 | 18.31316 | 2077 ft | 177 kts | 301° |
| 2026-04-21 11:42 | 43.83881 | 18.29950 | 2855 ft | 177 kts | 326° |
| 2026-04-21 11:42 | 43.85015 | 18.29395 | 3565 ft | 175 kts | 351° |
| 2026-04-21 11:42 | 43.86250 | 18.29122 | 4078 ft | 190 kts | 350° |
| 2026-04-21 11:42 | 43.87620 | 18.28737 | 4400 ft | 210 kts | 347° |
| 2026-04-21 11:43 | 43.89103 | 18.28206 | 4723 ft | 230 kts | 345° |
| 2026-04-21 11:43 | 43.90694 | 18.27562 | 5227 ft | 244 kts | 345° |
| 2026-04-21 11:43 | 43.92340 | 18.26897 | 5960 ft | 246 kts | 345° |
| 2026-04-21 11:43 | 43.93989 | 18.26241 | 6744 ft | 248 kts | 344° |
| 2026-04-21 11:44 | 43.95663 | 18.25607 | 7463 ft | 251 kts | 348° |
| 2026-04-21 11:44 | 43.97474 | 18.25331 | 7842 ft | 270 kts | 355° |
| 2026-04-21 11:44 | 43.99381 | 18.25140 | 8486 ft | 278 kts | 353° |
| 2026-04-21 11:44 | 44.01301 | 18.24915 | 9216 ft | 281 kts | 352° |
| 2026-04-21 11:45 | 44.03255 | 18.24668 | 10003 ft | 283 kts | 351° |
| 2026-04-21 11:45 | 44.05218 | 18.24396 | 10737 ft | 283 kts | 347° |
| 2026-04-21 11:45 | 44.07015 | 18.23405 | 11415 ft | 280 kts | 322° |
| 2026-04-21 11:45 | 44.08496 | 18.21524 | 11644 ft | 299 kts | 311° |
| 2026-04-21 11:46 | 44.09924 | 18.19291 | 11813 ft | 320 kts | 309° |
| 2026-04-21 11:46 | 44.11425 | 18.16870 | 12012 ft | 339 kts | 309° |
| 2026-04-21 11:46 | 44.12984 | 18.14351 | 12527 ft | 346 kts | 309° |
| 2026-04-21 11:46 | 44.14567 | 18.11812 | 13262 ft | 348 kts | 309° |
| 2026-04-21 11:47 | 44.16160 | 18.09272 | 14019 ft | 347 kts | 310° |
| 2026-04-21 11:47 | 44.17756 | 18.06737 | 14668 ft | 350 kts | 309° |
| 2026-04-21 11:47 | 44.19367 | 18.04185 | 15278 ft | 351 kts | 309° |
| 2026-04-21 11:47 | 44.20987 | 18.01618 | 15876 ft | 353 kts | 309° |
| 2026-04-21 11:48 | 44.22617 | 17.99035 | 16496 ft | 355 kts | 308° |
| 2026-04-21 11:48 | 44.24233 | 17.96474 | 17169 ft | 357 kts | 308° |
| 2026-04-21 11:48 | 44.25876 | 17.93867 | 17815 ft | 358 kts | 308° |
| 2026-04-21 11:48 | 44.27527 | 17.91246 | 18391 ft | 361 kts | 308° |
| 2026-04-21 11:49 | 44.29186 | 17.88610 | 18980 ft | 362 kts | 307° |
| 2026-04-21 11:49 | 44.30854 | 17.85957 | 19518 ft | 364 kts | 307° |
| 2026-04-21 11:49 | 44.32533 | 17.83285 | 20009 ft | 367 kts | 307° |
| 2026-04-21 11:49 | 44.34221 | 17.80596 | 20522 ft | 369 kts | 307° |
| 2026-04-21 11:50 | 44.35918 | 17.77889 | 21002 ft | 371 kts | 307° |
| 2026-04-21 11:50 | 44.37627 | 17.75158 | 21447 ft | 374 kts | 307° |
| 2026-04-21 11:50 | 44.39311 | 17.72441 | 21992 ft | 374 kts | 307° |
| 2026-04-21 11:50 | 44.41013 | 17.69681 | 22506 ft | 376 kts | 306° |
| 2026-04-21 11:51 | 44.42725 | 17.66898 | 22956 ft | 378 kts | 306° |
| 2026-04-21 11:51 | 44.44447 | 17.64097 | 23372 ft | 381 kts | 306° |
| 2026-04-21 11:51 | 44.46183 | 17.61273 | 23777 ft | 384 kts | 306° |
| 2026-04-21 11:51 | 44.47927 | 17.58435 | 24147 ft | 385 kts | 306° |
| 2026-04-21 11:52 | 44.49679 | 17.55581 | 24515 ft | 387 kts | 306° |
| 2026-04-21 11:52 | 44.51439 | 17.52712 | 24859 ft | 390 kts | 306° |
| 2026-04-21 11:52 | 44.53211 | 17.49821 | 25190 ft | 392 kts | 306° |
| 2026-04-21 11:52 | 44.54993 | 17.46909 | 25542 ft | 394 kts | 306° |
| 2026-04-21 11:53 | 44.56176 | 17.44975 | 25772 ft | 395 kts | 306° |
| 2026-04-21 11:53 | 44.57968 | 17.42046 | 26087 ft | 397 kts | 306° |
| 2026-04-21 11:53 | 44.59767 | 17.39100 | 26384 ft | 399 kts | 306° |
| 2026-04-21 11:53 | 44.61530 | 17.36087 | 26634 ft | 399 kts | 302° |
| 2026-04-21 11:54 | 44.62974 | 17.32780 | 26898 ft | 397 kts | 295° |
| 2026-04-21 11:54 | 44.64138 | 17.29263 | 27188 ft | 397 kts | 289° |
| 2026-04-21 11:54 | 44.64955 | 17.25555 | 27477 ft | 398 kts | 285° |
| 2026-04-21 11:54 | 44.65704 | 17.21813 | 27802 ft | 398 kts | 285° |
| 2026-04-21 11:55 | 44.66455 | 17.18077 | 28303 ft | 395 kts | 285° |
| 2026-04-21 11:55 | 44.67202 | 17.14395 | 28923 ft | 389 kts | 285° |
| 2026-04-21 11:55 | 44.67945 | 17.10758 | 29380 ft | 387 kts | 285° |
| 2026-04-21 11:55 | 44.68690 | 17.07119 | 29702 ft | 388 kts | 285° |
| 2026-04-21 11:56 | 44.69436 | 17.03473 | 29983 ft | 389 kts | 285° |
| 2026-04-21 11:56 | 44.70173 | 16.99869 | 30333 ft | 387 kts | 285° |
| 2026-04-21 11:56 | 44.71000 | 16.96223 | 30687 ft | 386 kts | 290° |
| 2026-04-21 11:56 | 44.72114 | 16.92848 | 30962 ft | 387 kts | 297° |
| 2026-04-21 11:57 | 44.73449 | 16.89550 | 31234 ft | 388 kts | 297° |
| 2026-04-21 11:57 | 44.74784 | 16.86255 | 31548 ft | 386 kts | 297° |
| 2026-04-21 11:57 | 44.76110 | 16.82969 | 31906 ft | 384 kts | 297° |
| 2026-04-21 11:57 | 44.77425 | 16.79691 | 32190 ft | 384 kts | 297° |
| 2026-04-21 11:58 | 44.78736 | 16.76407 | 32437 ft | 385 kts | 297° |
| 2026-04-21 11:58 | 44.80043 | 16.73125 | 32752 ft | 384 kts | 297° |
| 2026-04-21 11:58 | 44.81344 | 16.69847 | 33045 ft | 383 kts | 297° |
| 2026-04-21 11:58 | 44.82641 | 16.66577 | 33279 ft | 383 kts | 297° |
| 2026-04-21 11:59 | 44.83922 | 16.63339 | 33513 ft | 383 kts | 297° |
| 2026-04-21 11:59 | 44.85216 | 16.60066 | 33756 ft | 382 kts | 298° |
| 2026-04-21 11:59 | 44.86510 | 16.56792 | 33999 ft | 382 kts | 298° |
| 2026-04-21 11:59 | 44.87807 | 16.53505 | 34016 ft | 385 kts | 298° |
| 2026-04-21 12:00 | 44.90405 | 16.46907 | 34034 ft | 382 kts | 298° |
| 2026-04-21 12:00 | 44.92970 | 16.40380 | 34038 ft | 379 kts | 297° |
| 2026-04-21 12:01 | 44.95515 | 16.33891 | 34040 ft | 377 kts | 297° |
| 2026-04-21 12:01 | 44.97899 | 16.27313 | 34046 ft | 376 kts | 294° |
| 2026-04-21 12:02 | 45.01088 | 16.17175 | 34049 ft | 377 kts | 293° |
| 2026-04-21 12:03 | 45.03217 | 16.10383 | 34058 ft | 379 kts | 293° |
| 2026-04-21 12:03 | 45.05349 | 16.03604 | 34051 ft | 380 kts | 293° |
| 2026-04-21 12:04 | 45.07498 | 15.96767 | 34047 ft | 380 kts | 293° |
| 2026-04-21 12:04 | 45.09645 | 15.89924 | 34040 ft | 380 kts | 293° |
| 2026-04-21 12:05 | 45.11787 | 15.83077 | 34037 ft | 380 kts | 293° |
| 2026-04-21 12:05 | 45.13923 | 15.76230 | 34038 ft | 380 kts | 293° |
| 2026-04-21 12:06 | 45.16055 | 15.69382 | 34034 ft | 379 kts | 293° |
| 2026-04-21 12:06 | 45.18165 | 15.62580 | 34044 ft | 379 kts | 293° |
| 2026-04-21 12:07 | 45.20284 | 15.55735 | 34029 ft | 379 kts | 293° |
| 2026-04-21 12:07 | 45.22397 | 15.48890 | 34032 ft | 378 kts | 293° |
| 2026-04-21 12:08 | 45.24503 | 15.42049 | 34035 ft | 378 kts | 293° |
| 2026-04-21 12:08 | 45.26606 | 15.35204 | 34030 ft | 378 kts | 293° |
| 2026-04-21 12:09 | 45.28736 | 15.28379 | 34024 ft | 378 kts | 294° |
| 2026-04-21 12:09 | 45.31040 | 15.21673 | 34033 ft | 377 kts | 295° |
| 2026-04-21 12:10 | 45.33348 | 15.15033 | 34039 ft | 377 kts | 295° |
| 2026-04-21 12:10 | 45.35657 | 15.08315 | 34029 ft | 378 kts | 295° |
| 2026-04-21 12:11 | 45.37955 | 15.01579 | 34040 ft | 379 kts | 294° |
| 2026-04-21 12:11 | 45.40248 | 14.94824 | 34024 ft | 379 kts | 294° |
| 2026-04-21 12:12 | 45.42535 | 14.88066 | 33988 ft | 379 kts | 294° |
| 2026-04-21 12:12 | 45.44816 | 14.81309 | 34005 ft | 377 kts | 294° |
| 2026-04-21 12:13 | 45.47083 | 14.74576 | 34004 ft | 376 kts | 294° |
| 2026-04-21 12:13 | 45.49327 | 14.67893 | 34012 ft | 376 kts | 294° |
| 2026-04-21 12:14 | 45.51580 | 14.61168 | 34009 ft | 375 kts | 294° |
| 2026-04-21 12:14 | 45.53827 | 14.54442 | 34020 ft | 376 kts | 294° |
| 2026-04-21 12:15 | 45.56077 | 14.47691 | 34011 ft | 377 kts | 294° |
| 2026-04-21 12:15 | 45.58330 | 14.40911 | 34008 ft | 378 kts | 294° |
| 2026-04-21 12:16 | 45.60567 | 14.34166 | 33999 ft | 378 kts | 294° |
| 2026-04-21 12:16 | 45.62817 | 14.27363 | 34002 ft | 379 kts | 294° |
| 2026-04-21 12:17 | 45.65065 | 14.20546 | 33963 ft | 379 kts | 294° |
| 2026-04-21 12:17 | 45.67309 | 14.13726 | 33985 ft | 379 kts | 294° |
| 2026-04-21 12:18 | 45.69545 | 14.06913 | 33992 ft | 378 kts | 294° |
| 2026-04-21 12:18 | 45.71781 | 14.00080 | 34004 ft | 379 kts | 294° |
| 2026-04-21 12:19 | 45.73999 | 13.93283 | 33992 ft | 379 kts | 294° |
| 2026-04-21 12:19 | 45.76227 | 13.86440 | 33992 ft | 378 kts | 294° |
| 2026-04-21 12:20 | 45.78445 | 13.79609 | 33995 ft | 377 kts | 294° |
| 2026-04-21 12:20 | 45.80653 | 13.72790 | 33989 ft | 377 kts | 294° |
| 2026-04-21 12:21 | 45.82856 | 13.65972 | 33995 ft | 376 kts | 294° |
| 2026-04-21 12:21 | 45.85050 | 13.59161 | 33991 ft | 376 kts | 294° |
| 2026-04-21 12:22 | 45.87142 | 13.52275 | 33993 ft | 376 kts | 292° |
| 2026-04-21 12:22 | 45.89167 | 13.45347 | 33987 ft | 376 kts | 292° |
| 2026-04-21 12:23 | 45.91190 | 13.38425 | 33997 ft | 376 kts | 292° |
| 2026-04-21 12:23 | 45.93202 | 13.31553 | 33989 ft | 376 kts | 292° |
| 2026-04-21 12:24 | 45.95229 | 13.24629 | 33992 ft | 376 kts | 292° |
| 2026-04-21 12:24 | 45.97252 | 13.17703 | 33994 ft | 376 kts | 292° |
| 2026-04-21 12:25 | 45.99272 | 13.10770 | 33993 ft | 376 kts | 292° |
| 2026-04-21 12:25 | 46.01293 | 13.03816 | 33995 ft | 376 kts | 292° |
| 2026-04-21 12:26 | 46.03308 | 12.96860 | 33992 ft | 377 kts | 292° |
| 2026-04-21 12:26 | 46.05309 | 12.89935 | 33996 ft | 377 kts | 292° |
| 2026-04-21 12:27 | 46.07319 | 12.82955 | 33997 ft | 377 kts | 292° |
| 2026-04-21 12:27 | 46.09328 | 12.75965 | 33999 ft | 377 kts | 292° |
| 2026-04-21 12:28 | 46.11332 | 12.68968 | 34012 ft | 378 kts | 292° |
| 2026-04-21 12:28 | 46.13323 | 12.61997 | 34008 ft | 378 kts | 292° |
| 2026-04-21 12:29 | 46.15320 | 12.54985 | 34009 ft | 378 kts | 292° |
| 2026-04-21 12:29 | 46.17311 | 12.47975 | 33988 ft | 377 kts | 292° |
| 2026-04-21 12:30 | 46.19292 | 12.40980 | 34004 ft | 376 kts | 292° |
| 2026-04-21 12:30 | 46.21271 | 12.33976 | 34002 ft | 377 kts | 291° |
| 2026-04-21 12:31 | 46.23250 | 12.26942 | 33951 ft | 378 kts | 291° |
| 2026-04-21 12:31 | 46.25218 | 12.19931 | 33986 ft | 376 kts | 291° |
| 2026-04-21 12:32 | 46.27180 | 12.12924 | 33981 ft | 376 kts | 291° |
| 2026-04-21 12:32 | 46.29148 | 12.05874 | 33948 ft | 379 kts | 291° |
| 2026-04-21 12:33 | 46.31103 | 11.98850 | 33942 ft | 379 kts | 291° |
| 2026-04-21 12:33 | 46.33067 | 11.91772 | 33949 ft | 379 kts | 291° |
| 2026-04-21 12:34 | 46.35030 | 11.84677 | 33963 ft | 379 kts | 291° |
| 2026-04-21 12:34 | 46.36985 | 11.77590 | 33950 ft | 379 kts | 291° |
| 2026-04-21 12:35 | 46.38934 | 11.70505 | 33947 ft | 378 kts | 291° |
| 2026-04-21 12:35 | 46.40881 | 11.63405 | 33907 ft | 379 kts | 291° |
| 2026-04-21 12:36 | 46.42807 | 11.56361 | 33904 ft | 378 kts | 291° |
| 2026-04-21 12:36 | 46.44736 | 11.49283 | 33933 ft | 376 kts | 291° |
| 2026-04-21 12:37 | 46.46658 | 11.42213 | 33910 ft | 377 kts | 291° |
| 2026-04-21 12:37 | 46.48576 | 11.35135 | 33927 ft | 376 kts | 291° |
| 2026-04-21 12:38 | 46.50487 | 11.28062 | 33905 ft | 376 kts | 291° |
| 2026-04-21 12:38 | 46.52390 | 11.20998 | 33916 ft | 375 kts | 291° |
| 2026-04-21 12:39 | 46.53968 | 11.15123 | 33920 ft | 375 kts | 291° |
| 2026-04-21 12:39 | 46.55861 | 11.08058 | 33935 ft | 375 kts | 291° |
| 2026-04-21 12:40 | 46.57755 | 11.00968 | 33933 ft | 376 kts | 291° |
| 2026-04-21 12:40 | 46.59645 | 10.93869 | 33930 ft | 376 kts | 291° |
| 2026-04-21 12:41 | 46.61522 | 10.86801 | 33956 ft | 378 kts | 291° |
| 2026-04-21 12:41 | 46.63415 | 10.79649 | 33943 ft | 378 kts | 291° |
| 2026-04-21 12:42 | 46.65293 | 10.72525 | 33979 ft | 375 kts | 291° |
| 2026-04-21 12:42 | 46.67152 | 10.65460 | 33996 ft | 373 kts | 291° |
| 2026-04-21 12:43 | 46.69014 | 10.58363 | 33981 ft | 377 kts | 290° |
| 2026-04-21 12:43 | 46.70892 | 10.51183 | 34008 ft | 381 kts | 290° |
| 2026-04-21 12:44 | 46.72794 | 10.43897 | 33994 ft | 386 kts | 290° |
| 2026-04-21 12:44 | 46.74741 | 10.36579 | 33980 ft | 387 kts | 292° |
| 2026-04-21 12:45 | 46.76839 | 10.29359 | 34010 ft | 387 kts | 292° |
| 2026-04-21 12:45 | 46.78945 | 10.22154 | 33988 ft | 385 kts | 292° |
| 2026-04-21 12:46 | 46.81000 | 10.15043 | 34001 ft | 380 kts | 292° |
| 2026-04-21 12:46 | 46.83038 | 10.07937 | 34013 ft | 378 kts | 292° |
| 2026-04-21 12:47 | 46.85056 | 10.00864 | 34003 ft | 376 kts | 292° |
| 2026-04-21 12:47 | 46.87067 | 9.93794 | 34001 ft | 377 kts | 292° |
| 2026-04-21 12:48 | 46.89078 | 9.86702 | 34018 ft | 377 kts | 292° |
| 2026-04-21 12:48 | 46.91084 | 9.79608 | 34013 ft | 377 kts | 292° |
| 2026-04-21 12:49 | 46.93069 | 9.72566 | 34017 ft | 377 kts | 292° |
| 2026-04-21 12:49 | 46.95062 | 9.65475 | 34011 ft | 376 kts | 292° |
| 2026-04-21 12:50 | 46.97048 | 9.58392 | 34026 ft | 376 kts | 292° |
| 2026-04-21 12:50 | 46.99033 | 9.51289 | 34042 ft | 376 kts | 292° |
| 2026-04-21 12:51 | 47.01014 | 9.44183 | 34044 ft | 376 kts | 292° |
| 2026-04-21 12:51 | 47.02994 | 9.37052 | 34058 ft | 380 kts | 292° |
| 2026-04-21 12:52 | 47.04979 | 9.29887 | 34038 ft | 382 kts | 292° |
| 2026-04-21 12:52 | 47.06977 | 9.22650 | 34049 ft | 382 kts | 292° |
| 2026-04-21 12:53 | 47.08967 | 9.15422 | 34066 ft | 381 kts | 292° |
| 2026-04-21 12:53 | 47.10950 | 9.08196 | 34068 ft | 382 kts | 292° |
| 2026-04-21 12:54 | 47.12929 | 9.00967 | 34053 ft | 380 kts | 292° |
| 2026-04-21 12:54 | 47.14875 | 8.93837 | 34077 ft | 378 kts | 292° |
| 2026-04-21 12:55 | 47.16790 | 8.86607 | 34079 ft | 377 kts | 291° |
| 2026-04-21 12:55 | 47.18587 | 8.79416 | 34086 ft | 376 kts | 291° |
| 2026-04-21 12:56 | 47.20400 | 8.72202 | 34089 ft | 376 kts | 291° |
| 2026-04-21 12:56 | 47.22220 | 8.65004 | 34087 ft | 374 kts | 291° |
| 2026-04-21 12:57 | 47.24029 | 8.57845 | 34089 ft | 373 kts | 291° |
| 2026-04-21 12:57 | 47.25830 | 8.50686 | 34096 ft | 373 kts | 291° |
| 2026-04-21 12:58 | 47.27630 | 8.43534 | 34070 ft | 372 kts | 291° |
| 2026-04-21 12:58 | 47.29430 | 8.36377 | 34065 ft | 373 kts | 291° |
| 2026-04-21 12:59 | 47.31231 | 8.29190 | 34038 ft | 374 kts | 291° |
| 2026-04-21 12:59 | 47.33027 | 8.21998 | 34063 ft | 374 kts | 291° |
| 2026-04-21 13:00 | 47.34821 | 8.14795 | 34067 ft | 375 kts | 291° |
| 2026-04-21 13:00 | 47.36606 | 8.07607 | 34075 ft | 376 kts | 291° |
| 2026-04-21 13:01 | 47.38401 | 8.00348 | 34078 ft | 376 kts | 291° |
| 2026-04-21 13:01 | 47.40194 | 7.93082 | 34066 ft | 376 kts | 291° |
| 2026-04-21 13:02 | 47.41980 | 7.85816 | 34074 ft | 376 kts | 291° |
| 2026-04-21 13:02 | 47.44651 | 7.74912 | 34091 ft | 376 kts | 290° |
| 2026-04-21 13:03 | 47.46080 | 7.67481 | 34104 ft | 378 kts | 281° |
| 2026-04-21 13:03 | 47.46304 | 7.59729 | 34098 ft | 384 kts | 269° |
| 2026-04-21 13:04 | 47.45771 | 7.51807 | 34380 ft | 388 kts | 269° |
| 2026-04-21 13:04 | 47.45213 | 7.43844 | 34637 ft | 390 kts | 269° |
| 2026-04-21 13:05 | 47.44938 | 7.39853 | 34861 ft | 390 kts | 269° |
| 2026-04-21 13:05 | 47.44665 | 7.35869 | 35022 ft | 390 kts | 269° |
| 2026-04-21 13:05 | 47.44118 | 7.27826 | 35063 ft | 394 kts | 269° |
| 2026-04-21 13:06 | 47.43568 | 7.19822 | 35086 ft | 393 kts | 269° |
| 2026-04-21 13:06 | 47.43011 | 7.11810 | 35084 ft | 391 kts | 269° |
| 2026-04-21 13:07 | 47.42451 | 7.03817 | 35082 ft | 390 kts | 269° |
| 2026-04-21 13:07 | 47.41889 | 6.95870 | 35096 ft | 389 kts | 269° |
| 2026-04-21 13:08 | 47.41323 | 6.87933 | 35106 ft | 389 kts | 269° |
| 2026-04-21 13:08 | 47.40755 | 6.80044 | 35106 ft | 389 kts | 268° |
| 2026-04-21 13:09 | 47.40177 | 6.72084 | 35107 ft | 390 kts | 268° |
| 2026-04-21 13:09 | 47.39591 | 6.64121 | 35067 ft | 390 kts | 268° |
| 2026-04-21 13:10 | 47.38992 | 6.56134 | 35064 ft | 392 kts | 268° |
| 2026-04-21 13:10 | 47.38387 | 6.48128 | 35068 ft | 393 kts | 268° |
| 2026-04-21 13:11 | 47.37773 | 6.40080 | 35069 ft | 395 kts | 268° |
| 2026-04-21 13:11 | 47.37157 | 6.32065 | 35061 ft | 397 kts | 268° |
| 2026-04-21 13:12 | 47.36529 | 6.23970 | 35058 ft | 397 kts | 268° |
| 2026-04-21 13:12 | 47.35894 | 6.15869 | 35043 ft | 397 kts | 268° |
| 2026-04-21 13:13 | 47.35256 | 6.07768 | 35044 ft | 397 kts | 268° |
| 2026-04-21 13:13 | 47.34602 | 5.99680 | 35053 ft | 397 kts | 267° |
| 2026-04-21 13:14 | 47.33915 | 5.91590 | 35055 ft | 398 kts | 267° |
| 2026-04-21 13:14 | 47.33229 | 5.83544 | 35051 ft | 397 kts | 267° |
| 2026-04-21 13:15 | 47.32566 | 5.75474 | 35049 ft | 396 kts | 267° |
| 2026-04-21 13:15 | 47.31917 | 5.67403 | 35049 ft | 396 kts | 267° |
| 2026-04-21 13:16 | 47.31259 | 5.59322 | 35056 ft | 397 kts | 267° |
| 2026-04-21 13:16 | 47.30593 | 5.51231 | 35057 ft | 398 kts | 267° |
| 2026-04-21 13:17 | 47.29919 | 5.43134 | 35064 ft | 398 kts | 267° |
| 2026-04-21 13:17 | 47.29239 | 5.35041 | 35058 ft | 398 kts | 267° |
| 2026-04-21 13:18 | 47.28556 | 5.26958 | 34758 ft | 402 kts | 267° |
| 2026-04-21 13:18 | 47.28209 | 5.22877 | 34523 ft | 399 kts | 267° |
| 2026-04-21 13:18 | 47.27862 | 5.18839 | 34281 ft | 395 kts | 267° |
| 2026-04-21 13:19 | 47.27600 | 5.14833 | 33711 ft | 391 kts | 276° |
| 2026-04-21 13:19 | 47.28070 | 5.10962 | 33199 ft | 382 kts | 289° |
| 2026-04-21 13:19 | 47.29069 | 5.07355 | 32592 ft | 379 kts | 299° |
| 2026-04-21 13:19 | 47.30577 | 5.04173 | 31972 ft | 379 kts | 310° |
| 2026-04-21 13:20 | 47.31763 | 5.02303 | 31751 ft | 375 kts | 312° |
| 2026-04-21 13:20 | 47.34188 | 4.98641 | 31107 ft | 370 kts | 313° |
| 2026-04-21 13:20 | 47.35985 | 4.95942 | 30643 ft | 367 kts | 313° |
| 2026-04-21 13:20 | 47.37757 | 4.93259 | 30194 ft | 363 kts | 312° |
| 2026-04-21 13:21 | 47.39504 | 4.90590 | 29708 ft | 359 kts | 312° |
| 2026-04-21 13:21 | 47.41221 | 4.87949 | 29265 ft | 354 kts | 312° |
| 2026-04-21 13:21 | 47.42893 | 4.85366 | 28825 ft | 349 kts | 312° |
| 2026-04-21 13:21 | 47.44584 | 4.82748 | 28376 ft | 345 kts | 312° |
| 2026-04-21 13:22 | 47.46210 | 4.80229 | 27932 ft | 341 kts | 312° |
| 2026-04-21 13:22 | 47.47840 | 4.77701 | 27492 ft | 338 kts | 312° |
| 2026-04-21 13:22 | 47.49454 | 4.75196 | 27052 ft | 335 kts | 312° |
| 2026-04-21 13:22 | 47.51045 | 4.72724 | 26808 ft | 327 kts | 312° |
| 2026-04-21 13:23 | 47.52609 | 4.70293 | 26543 ft | 327 kts | 312° |
| 2026-04-21 13:23 | 47.54200 | 4.67815 | 26277 ft | 336 kts | 312° |
| 2026-04-21 13:23 | 47.55819 | 4.65292 | 25996 ft | 339 kts | 312° |
| 2026-04-21 13:23 | 47.57433 | 4.62775 | 25708 ft | 335 kts | 312° |
| 2026-04-21 13:24 | 47.59030 | 4.60284 | 25406 ft | 332 kts | 312° |
| 2026-04-21 13:24 | 47.60616 | 4.57805 | 25145 ft | 330 kts | 312° |
| 2026-04-21 13:24 | 47.62191 | 4.55343 | 24884 ft | 329 kts | 312° |
| 2026-04-21 13:24 | 47.63761 | 4.52886 | 24640 ft | 328 kts | 312° |
| 2026-04-21 13:25 | 47.64803 | 4.51253 | 24465 ft | 328 kts | 312° |
| 2026-04-21 13:25 | 47.66373 | 4.48791 | 24201 ft | 329 kts | 312° |
| 2026-04-21 13:25 | 47.67945 | 4.46324 | 23933 ft | 329 kts | 312° |
| 2026-04-21 13:25 | 47.69517 | 4.43855 | 23664 ft | 329 kts | 312° |
| 2026-04-21 13:26 | 47.71091 | 4.41379 | 23353 ft | 329 kts | 312° |
| 2026-04-21 13:26 | 47.72660 | 4.38909 | 23086 ft | 328 kts | 312° |
| 2026-04-21 13:26 | 47.74222 | 4.36448 | 22789 ft | 326 kts | 312° |
| 2026-04-21 13:26 | 47.75773 | 4.34004 | 22511 ft | 324 kts | 312° |
| 2026-04-21 13:27 | 47.77315 | 4.31570 | 22235 ft | 322 kts | 312° |
| 2026-04-21 13:27 | 47.78846 | 4.29152 | 21974 ft | 320 kts | 312° |
| 2026-04-21 13:27 | 47.80370 | 4.26742 | 21715 ft | 319 kts | 312° |
| 2026-04-21 13:27 | 47.81866 | 4.24374 | 21463 ft | 318 kts | 312° |
| 2026-04-21 13:28 | 47.83399 | 4.21946 | 21205 ft | 318 kts | 312° |
| 2026-04-21 13:28 | 47.84896 | 4.19573 | 20928 ft | 318 kts | 312° |
| 2026-04-21 13:28 | 47.86415 | 4.17163 | 20681 ft | 320 kts | 312° |
| 2026-04-21 13:28 | 47.87831 | 4.14605 | 20410 ft | 322 kts | 302° |
| 2026-04-21 13:29 | 47.88746 | 4.11559 | 20160 ft | 325 kts | 289° |
| 2026-04-21 13:29 | 47.89289 | 4.08268 | 19904 ft | 328 kts | 285° |
| 2026-04-21 13:29 | 47.89919 | 4.03794 | 19544 ft | 330 kts | 285° |
| 2026-04-21 13:29 | 47.90225 | 4.01571 | 19373 ft | 331 kts | 285° |
| 2026-04-21 13:30 | 47.90692 | 3.98206 | 19100 ft | 331 kts | 285° |
| 2026-04-21 13:30 | 47.91165 | 3.94846 | 18828 ft | 331 kts | 285° |
| 2026-04-21 13:30 | 47.91642 | 3.91493 | 18557 ft | 330 kts | 285° |
| 2026-04-21 13:30 | 47.92114 | 3.88197 | 18282 ft | 329 kts | 285° |
| 2026-04-21 13:31 | 47.92592 | 3.84870 | 17980 ft | 327 kts | 285° |
| 2026-04-21 13:31 | 47.93068 | 3.81562 | 17693 ft | 325 kts | 285° |
| 2026-04-21 13:31 | 47.93540 | 3.78274 | 17420 ft | 323 kts | 285° |
| 2026-04-21 13:31 | 47.94009 | 3.75007 | 17153 ft | 321 kts | 285° |
| 2026-04-21 13:32 | 47.94475 | 3.71756 | 16889 ft | 320 kts | 285° |
| 2026-04-21 13:32 | 47.94938 | 3.68521 | 16629 ft | 319 kts | 285° |
| 2026-04-21 13:32 | 47.95394 | 3.65328 | 16374 ft | 318 kts | 284° |
| 2026-04-21 13:32 | 47.95853 | 3.62102 | 16125 ft | 318 kts | 284° |
| 2026-04-21 13:33 | 47.96327 | 3.58879 | 15859 ft | 317 kts | 288° |
| 2026-04-21 13:33 | 47.97249 | 3.55916 | 15602 ft | 315 kts | 305° |
| 2026-04-21 13:33 | 47.98671 | 3.53432 | 15362 ft | 315 kts | 313° |
| 2026-04-21 13:33 | 48.00207 | 3.51098 | 15100 ft | 316 kts | 314° |
| 2026-04-21 13:34 | 48.01766 | 3.48775 | 14842 ft | 316 kts | 315° |
| 2026-04-21 13:34 | 48.03324 | 3.46449 | 14580 ft | 317 kts | 314° |
| 2026-04-21 13:34 | 48.04877 | 3.44111 | 14320 ft | 317 kts | 314° |
| 2026-04-21 13:34 | 48.06429 | 3.41760 | 14064 ft | 317 kts | 314° |
| 2026-04-21 13:35 | 48.07975 | 3.39406 | 13762 ft | 317 kts | 314° |
| 2026-04-21 13:35 | 48.09496 | 3.37083 | 13497 ft | 316 kts | 314° |
| 2026-04-21 13:35 | 48.11028 | 3.34738 | 13228 ft | 314 kts | 314° |
| 2026-04-21 13:35 | 48.12553 | 3.32399 | 12973 ft | 313 kts | 314° |
| 2026-04-21 13:36 | 48.14071 | 3.30068 | 12712 ft | 312 kts | 314° |
| 2026-04-21 13:36 | 48.15581 | 3.27749 | 12456 ft | 311 kts | 314° |
| 2026-04-21 13:36 | 48.17086 | 3.25434 | 12204 ft | 310 kts | 314° |
| 2026-04-21 13:36 | 48.18588 | 3.23120 | 11965 ft | 309 kts | 314° |
| 2026-04-21 13:37 | 48.20087 | 3.20811 | 11708 ft | 309 kts | 314° |
| 2026-04-21 13:37 | 48.21591 | 3.18496 | 11450 ft | 309 kts | 314° |
| 2026-04-21 13:37 | 48.23092 | 3.16187 | 11221 ft | 309 kts | 314° |
| 2026-04-21 13:37 | 48.24590 | 3.13879 | 11162 ft | 309 kts | 314° |
| 2026-04-21 13:38 | 48.26093 | 3.11563 | 11141 ft | 307 kts | 314° |
| 2026-04-21 13:38 | 48.27575 | 3.09276 | 11133 ft | 307 kts | 314° |
| 2026-04-21 13:38 | 48.29055 | 3.06990 | 11134 ft | 310 kts | 314° |
| 2026-04-21 13:38 | 48.30553 | 3.04674 | 11125 ft | 300 kts | 314° |
| 2026-04-21 13:39 | 48.31976 | 3.02472 | 11120 ft | 295 kts | 314° |
| 2026-04-21 13:39 | 48.33412 | 3.00249 | 11114 ft | 297 kts | 314° |
| 2026-04-21 13:39 | 48.34857 | 2.98009 | 11125 ft | 297 kts | 314° |
| 2026-04-21 13:39 | 48.36300 | 2.95770 | 11130 ft | 298 kts | 314° |
| 2026-04-21 13:40 | 48.37746 | 2.93526 | 11138 ft | 299 kts | 314° |
| 2026-04-21 13:40 | 48.39193 | 2.91277 | 11136 ft | 299 kts | 314° |
| 2026-04-21 13:40 | 48.40643 | 2.89022 | 11147 ft | 300 kts | 315° |
| 2026-04-21 13:40 | 48.42096 | 2.86760 | 11132 ft | 301 kts | 315° |
| 2026-04-21 13:41 | 48.43554 | 2.84489 | 11131 ft | 302 kts | 315° |
| 2026-04-21 13:41 | 48.44915 | 2.82129 | 11134 ft | 304 kts | 302° |
| 2026-04-21 13:41 | 48.45645 | 2.79138 | 11148 ft | 307 kts | 283° |
| 2026-04-21 13:41 | 48.45844 | 2.75913 | 11150 ft | 309 kts | 274° |
| 2026-04-21 13:42 | 48.45898 | 2.72670 | 11142 ft | 310 kts | 274° |
| 2026-04-21 13:42 | 48.45954 | 2.69398 | 11153 ft | 315 kts | 275° |
| 2026-04-21 13:42 | 48.46032 | 2.66057 | 11149 ft | 319 kts | 275° |
| 2026-04-21 13:42 | 48.46126 | 2.62766 | 11100 ft | 309 kts | 276° |
| 2026-04-21 13:43 | 48.46206 | 2.59571 | 10875 ft | 302 kts | 274° |
| 2026-04-21 13:43 | 48.46247 | 2.56454 | 10579 ft | 293 kts | 274° |
| 2026-04-21 13:43 | 48.46275 | 2.53433 | 10304 ft | 286 kts | 274° |
| 2026-04-21 13:43 | 48.46306 | 2.50453 | 10035 ft | 283 kts | 274° |
| 2026-04-21 13:44 | 48.46353 | 2.47526 | 9744 ft | 282 kts | 274° |
| 2026-04-21 13:44 | 48.46389 | 2.44571 | 9446 ft | 281 kts | 274° |
| 2026-04-21 13:44 | 48.46409 | 2.41631 | 9162 ft | 281 kts | 274° |
| 2026-04-21 13:44 | 48.46433 | 2.38688 | 8870 ft | 281 kts | 274° |
| 2026-04-21 13:45 | 48.46439 | 2.35734 | 8564 ft | 283 kts | 274° |
| 2026-04-21 13:45 | 48.46448 | 2.32765 | 8250 ft | 285 kts | 273° |
| 2026-04-21 13:45 | 48.46471 | 2.29778 | 7938 ft | 286 kts | 274° |
| 2026-04-21 13:45 | 48.46493 | 2.26771 | 7646 ft | 288 kts | 273° |
| 2026-04-21 13:46 | 48.46526 | 2.23749 | 7353 ft | 289 kts | 274° |
| 2026-04-21 13:46 | 48.46567 | 2.20722 | 7084 ft | 289 kts | 274° |
| 2026-04-21 13:46 | 48.46613 | 2.17678 | 6779 ft | 291 kts | 276° |
| 2026-04-21 13:46 | 48.47105 | 2.14786 | 6451 ft | 282 kts | 302° |
| 2026-04-21 13:47 | 48.48341 | 2.12621 | 6144 ft | 268 kts | 327° |
| 2026-04-21 13:47 | 48.49842 | 2.11030 | 5836 ft | 260 kts | 331° |
| 2026-04-21 13:47 | 48.51330 | 2.09537 | 5510 ft | 255 kts | 331° |
| 2026-04-21 13:47 | 48.52809 | 2.08072 | 5221 ft | 254 kts | 332° |
| 2026-04-21 13:48 | 48.54278 | 2.06617 | 4955 ft | 249 kts | 332° |
| 2026-04-21 13:48 | 48.55697 | 2.05212 | 4638 ft | 244 kts | 334° |
| 2026-04-21 13:48 | 48.57234 | 2.04380 | 4304 ft | 230 kts | 358° |
| 2026-04-21 13:48 | 48.58798 | 2.04157 | 4050 ft | 222 kts | 1° |
| 2026-04-21 13:49 | 48.60329 | 2.04145 | 3996 ft | 220 kts | 14° |
| 2026-04-21 13:49 | 48.61774 | 2.04810 | 3984 ft | 214 kts | 34° |
| 2026-04-21 13:49 | 48.62715 | 2.06446 | 4016 ft | 206 kts | 61° |
| 2026-04-21 13:49 | 48.63490 | 2.08265 | 3847 ft | 203 kts | 56° |
| 2026-04-21 13:50 | 48.64289 | 2.09996 | 3594 ft | 197 kts | 58° |
| 2026-04-21 13:50 | 48.64985 | 2.11740 | 3335 ft | 190 kts | 61° |
| 2026-04-21 13:50 | 48.65594 | 2.13432 | 3096 ft | 182 kts | 62° |
| 2026-04-21 13:50 | 48.66186 | 2.15117 | 2836 ft | 175 kts | 63° |
| 2026-04-21 13:51 | 48.66747 | 2.16719 | 2602 ft | 168 kts | 63° |
| 2026-04-21 13:51 | 48.67288 | 2.18264 | 2363 ft | 163 kts | 62° |
| 2026-04-21 13:51 | 48.67804 | 2.19736 | 2145 ft | 153 kts | 62° |
| 2026-04-21 13:51 | 48.68283 | 2.21102 | 1978 ft | 144 kts | 62° |
| 2026-04-21 13:52 | 48.68753 | 2.22441 | 1762 ft | 144 kts | 62° |
| 2026-04-21 13:52 | 48.69218 | 2.23768 | 1552 ft | 140 kts | 62° |
| 2026-04-21 13:52 | 48.69678 | 2.25077 | 1366 ft | 140 kts | 61° |
| 2026-04-21 13:52 | 48.70135 | 2.26378 | 1185 ft | 143 kts | 59° |
| 2026-04-21 13:53 | 48.70608 | 2.27730 | 1037 ft | 148 kts | 60° |
| 2026-04-21 13:53 | 48.71073 | 2.29106 | 794 ft | 147 kts | 60° |
| 2026-04-21 13:53 | 48.71549 | 2.30442 | 601 ft | 142 kts | 59° |
| 2026-04-21 13:53 | 48.72015 | 2.31744 | 380 ft | 139 kts | 60° |
| 2026-04-21 13:54 | 48.72454 | 2.32994 | 298 ft | 124 kts | 59° |
| 2026-04-21 13:54 | 48.72807 | 2.33979 | 299 ft | 89 kts | 63° |
| 2026-04-21 13:54 | 48.72997 | 2.34574 | 294 ft | 43 kts | 80° |
| 2026-04-21 13:54 | 48.73031 | 2.34966 | 292 ft | 29 kts | 80° |
| 2026-04-21 13:55 | 48.73040 | 2.35131 | 293 ft | 14 kts | 94° |
| 2026-04-21 13:55 | 48.72996 | 2.35254 | 293 ft | 13 kts | 131° |
| 2026-04-21 13:55 | 48.72919 | 2.35325 | 295 ft | 13 kts | 144° |
| 2026-04-21 13:55 | 48.72866 | 2.35426 | 294 ft | 13 kts | 158° |
| 2026-04-21 13:56 | 48.72779 | 2.35464 | 296 ft | 14 kts | 164° |
| 2026-04-21 13:56 | 48.72682 | 2.35506 | 299 ft | 15 kts | 165° |
| 2026-04-21 13:56 | 48.72575 | 2.35552 | 295 ft | 16 kts | 164° |
| 2026-04-21 13:56 | 48.72472 | 2.35601 | 295 ft | 15 kts | 143° |
| 2026-04-21 13:57 | 48.72477 | 2.35751 | 296 ft | 15 kts | 79° |
| 2026-04-21 13:57 | 48.72470 | 2.35910 | 294 ft | 15 kts | 96° |
| 2026-04-21 13:57 | 48.72477 | 2.36067 | 297 ft | 15 kts | 77° |
| 2026-04-21 13:57 | 48.72504 | 2.36213 | 298 ft | 14 kts | 76° |
| 2026-04-21 13:58 | 48.72529 | 2.36354 | 295 ft | 14 kts | 74° |
| 2026-04-21 13:58 | 48.72557 | 2.36507 | 295 ft | 16 kts | 74° |
| 2026-04-21 13:58 | 48.72592 | 2.36586 | 295 ft | 7 kts | 356° |
| 2026-04-21 13:58 | 48.72595 | 2.36585 | 295 ft | 0 kts | 354° |
| 2026-04-21 13:59 | 48.72616 | 2.36584 | 294 ft | 6 kts | 1° |
| 2026-04-21 13:59 | 48.72656 | 2.36588 | 297 ft | 5 kts | 4° |
| 2026-04-21 13:59 | 48.72683 | 2.36591 | 296 ft | 1 kts | 4° |
| 2026-04-21 13:59 | 48.72689 | 2.36592 | 295 ft | 0 kts | 5° |